createdAt,value
2022-09-19T00:01:55.057Z,20.81
2022-09-19T00:04:31.578Z,20.79
2022-09-19T00:07:00.471Z,20.78
2022-09-19T00:09:32.230Z,20.77
2022-09-19T00:11:59.981Z,20.79
2022-09-19T00:14:34.210Z,20.79
2022-09-19T00:17:05.751Z,20.75
2022-09-19T00:19:33.686Z,20.72
2022-09-19T00:22:02.506Z,20.70
2022-09-19T00:24:50.887Z,20.75
2022-09-19T00:27:27.099Z,20.76
2022-09-19T00:29:55.381Z,20.72
2022-09-19T00:32:24.507Z,20.72
2022-09-19T00:34:56.105Z,20.75
2022-09-19T00:37:23.876Z,20.73
2022-09-19T00:39:51.843Z,20.72
2022-09-19T00:42:26.343Z,20.74
2022-09-19T00:45:03.126Z,20.70
2022-09-19T00:47:41.482Z,20.73
2022-09-19T00:50:22.948Z,20.68
2022-09-19T00:53:01.047Z,20.66
2022-09-19T00:55:28.685Z,20.65
2022-09-19T00:58:27.233Z,20.65
2022-09-19T01:00:54.517Z,20.68
2022-09-19T01:03:26.018Z,20.66
2022-09-19T01:06:36.965Z,20.64
2022-09-19T01:09:37.610Z,20.55
2022-09-19T01:12:19.871Z,20.58
2022-09-19T01:15:10.899Z,20.49
2022-09-19T01:17:49.887Z,20.53
2022-09-19T01:20:37.758Z,20.52
2022-09-19T01:23:49.423Z,20.37
2022-09-19T01:26:50.055Z,20.43
2022-09-19T01:29:38.501Z,20.42
2022-09-19T01:32:14.208Z,20.26
2022-09-19T01:34:49.848Z,20.14
2022-09-19T01:37:31.559Z,20.16
2022-09-19T01:40:03.820Z,20.24
2022-09-19T01:42:31.091Z,20.17
2022-09-19T01:44:58.142Z,20.25
2022-09-19T01:47:46.164Z,20.33
2022-09-19T01:50:32.831Z,20.42
2022-09-19T01:53:10.915Z,20.46
2022-09-19T01:56:00.321Z,20.51
2022-09-19T01:58:52.269Z,20.52
2022-09-19T02:01:45.601Z,20.54
2022-09-19T02:05:22.537Z,20.59
2022-09-19T02:08:04.104Z,20.54
2022-09-19T02:10:47.903Z,20.57
2022-09-19T02:13:17.823Z,20.55
2022-09-19T02:15:51.321Z,20.58
2022-09-19T02:18:43.964Z,20.58
2022-09-19T02:21:22.509Z,20.60
2022-09-19T02:23:53.625Z,20.62
2022-09-19T02:26:23.236Z,20.61
2022-09-19T02:28:59.100Z,20.63
2022-09-19T02:31:28.212Z,20.57
2022-09-19T02:34:00.038Z,20.58
2022-09-19T02:37:23.032Z,20.59
2022-09-19T02:40:30.232Z,20.53
2022-09-19T02:43:15.767Z,20.56
2022-09-19T02:45:49.414Z,20.57
2022-09-19T02:48:44.569Z,20.58
2022-09-19T02:51:25.560Z,20.57
2022-09-19T02:54:03.283Z,20.55
2022-09-19T02:56:35.661Z,20.56
2022-09-19T02:59:15.665Z,20.59
2022-09-19T03:01:49.097Z,20.56
2022-09-19T03:04:22.952Z,20.59
2022-09-19T03:07:13.827Z,20.58
2022-09-19T03:09:55.074Z,20.58
2022-09-19T03:12:37.099Z,20.62
2022-09-19T03:15:06.498Z,20.60
2022-09-19T03:17:44.415Z,20.60
2022-09-19T03:20:14.956Z,20.56
2022-09-19T03:22:42.326Z,20.60
2022-09-19T03:25:11.429Z,20.58
2022-09-19T03:27:38.698Z,20.59
2022-09-19T03:30:18.165Z,20.59
2022-09-19T03:32:46.856Z,20.54
2022-09-19T03:35:15.678Z,20.55
2022-09-19T03:37:43.191Z,20.56
2022-09-19T03:40:12.119Z,20.56
2022-09-19T03:42:39.167Z,20.55
2022-09-19T03:45:07.187Z,20.55
2022-09-19T03:47:34.274Z,20.53
2022-09-19T03:50:01.289Z,20.54
2022-09-19T03:52:28.334Z,20.53
2022-09-19T03:54:55.882Z,20.55
2022-09-19T03:57:22.968Z,20.55
2022-09-19T03:59:50.016Z,20.57
2022-09-19T04:02:17.021Z,20.53
2022-09-19T04:04:44.105Z,20.51
2022-09-19T04:07:11.127Z,20.48
2022-09-19T04:09:38.158Z,20.46
2022-09-19T04:12:06.416Z,20.47
2022-09-19T04:14:35.402Z,20.47
2022-09-19T04:17:21.550Z,20.49
2022-09-19T04:19:53.377Z,20.49
2022-09-19T04:22:22.983Z,20.49
2022-09-19T04:24:50.419Z,20.48
2022-09-19T04:27:20.871Z,20.47
2022-09-19T04:29:49.655Z,20.45
2022-09-19T04:32:17.286Z,20.44
2022-09-19T04:34:45.029Z,20.44
2022-09-19T04:37:16.057Z,20.47
2022-09-19T04:39:43.135Z,20.46
2022-09-19T04:42:10.498Z,20.37
2022-09-19T04:44:37.712Z,20.44
2022-09-19T04:47:07.330Z,20.37
2022-09-19T04:49:40.566Z,20.36
2022-09-19T04:52:13.706Z,20.36
2022-09-19T04:54:42.611Z,20.39
2022-09-19T04:57:10.688Z,20.39
2022-09-19T04:59:37.878Z,20.34
2022-09-19T05:02:08.300Z,20.33
2022-09-19T05:04:37.005Z,20.25
2022-09-19T05:07:04.988Z,20.09
2022-09-19T05:09:32.041Z,20.16
2022-09-19T05:11:59.015Z,20.16
2022-09-19T05:14:27.754Z,20.11
2022-09-19T05:16:55.433Z,20.12
2022-09-19T05:19:23.372Z,20.11
2022-09-19T05:21:52.135Z,20.02
2022-09-19T05:24:20.324Z,20.14
2022-09-19T05:26:48.094Z,20.17
2022-09-19T05:29:15.378Z,20.20
2022-09-19T05:31:46.842Z,20.22
2022-09-19T05:34:14.909Z,20.22
2022-09-19T05:36:43.103Z,20.26
2022-09-19T05:39:10.889Z,20.26
2022-09-19T05:41:39.291Z,20.20
2022-09-19T05:44:06.355Z,20.25
2022-09-19T05:46:33.390Z,20.29
2022-09-19T05:49:00.589Z,20.29
2022-09-19T05:51:27.654Z,20.26
2022-09-19T05:53:54.822Z,20.27
2022-09-19T05:56:22.521Z,20.28
2022-09-19T05:58:54.252Z,20.26
2022-09-19T06:01:22.251Z,20.27
2022-09-19T06:03:49.375Z,20.22
2022-09-19T06:06:21.860Z,20.17
2022-09-19T06:08:57.834Z,20.10
2022-09-19T06:11:25.408Z,20.11
2022-09-19T06:14:10.859Z,20.12
2022-09-19T06:16:38.423Z,20.11
2022-09-19T06:19:06.930Z,20.10
2022-09-19T06:21:33.982Z,20.15
2022-09-19T06:24:02.326Z,20.02
2022-09-19T06:26:29.731Z,20.02
2022-09-19T06:28:56.743Z,20.00
2022-09-19T06:31:23.802Z,20.10
2022-09-19T06:33:50.860Z,20.10
2022-09-19T06:36:18.580Z,20.13
2022-09-19T06:38:45.578Z,20.19
2022-09-19T06:41:12.860Z,20.21
2022-09-19T06:43:40.234Z,20.20
2022-09-19T06:46:07.437Z,20.18
2022-09-19T06:48:36.310Z,20.13
2022-09-19T06:51:04.174Z,20.14
2022-09-19T06:53:31.399Z,20.15
2022-09-19T06:55:58.371Z,20.10
2022-09-19T06:58:27.573Z,19.97
2022-09-19T07:00:55.645Z,19.83
2022-09-19T07:03:23.194Z,19.81
2022-09-19T07:05:52.526Z,19.88
2022-09-19T07:08:19.619Z,19.60
2022-09-19T07:10:46.553Z,19.74
2022-09-19T07:13:17.376Z,19.84
2022-09-19T07:15:44.957Z,19.99
2022-09-19T07:18:14.345Z,19.95
2022-09-19T07:20:42.880Z,19.93
2022-09-19T07:23:17.128Z,19.88
2022-09-19T07:25:45.034Z,19.74
2022-09-19T07:28:18.735Z,19.81
2022-09-19T07:30:51.653Z,19.71
2022-09-19T07:33:22.136Z,19.63
2022-09-19T07:35:49.223Z,19.55
2022-09-19T07:38:19.611Z,19.60
2022-09-19T07:40:47.518Z,19.62
2022-09-19T07:43:17.442Z,19.67
2022-09-19T07:45:48.149Z,19.72
2022-09-19T07:48:17.415Z,19.79
2022-09-19T07:50:49.544Z,19.84
2022-09-19T07:53:25.011Z,19.80
2022-09-19T07:55:55.535Z,19.77
2022-09-19T07:58:26.854Z,19.84
2022-09-19T08:00:54.641Z,19.78
2022-09-19T08:03:22.332Z,19.86
2022-09-19T08:05:52.707Z,19.84
2022-09-19T08:08:23.634Z,19.86
2022-09-19T08:10:50.959Z,19.84
2022-09-19T08:13:19.689Z,19.87
2022-09-19T08:15:49.668Z,19.77
2022-09-19T08:18:20.424Z,19.82
2022-09-19T08:20:49.737Z,19.87
2022-09-19T08:23:20.049Z,19.85
2022-09-19T08:25:49.560Z,19.84
2022-09-19T08:28:21.460Z,19.85
2022-09-19T08:30:49.812Z,19.88
2022-09-19T08:33:17.551Z,19.91
2022-09-19T08:35:45.026Z,19.70
2022-09-19T08:38:14.362Z,19.65
2022-09-19T08:40:41.602Z,19.71
2022-09-19T08:43:17.377Z,19.56
2022-09-19T08:46:34.291Z,19.60
2022-09-19T08:49:29.129Z,19.65
2022-09-19T08:52:25.194Z,19.66
2022-09-19T08:54:55.351Z,19.75
2022-09-19T08:57:34.341Z,19.82
2022-09-19T09:00:19.672Z,19.83
2022-09-19T09:03:19.288Z,19.89
2022-09-19T09:06:04.365Z,19.94
2022-09-19T09:08:58.676Z,19.88
2022-09-19T09:12:20.204Z,19.95
2022-09-19T09:15:49.767Z,19.88
2022-09-19T09:18:44.648Z,19.78
2022-09-19T09:21:53.151Z,19.81
2022-09-19T09:24:34.762Z,19.72
2022-09-19T09:27:06.839Z,19.57
2022-09-19T09:29:51.908Z,19.38
2022-09-19T09:32:45.102Z,19.43
2022-09-19T09:35:33.258Z,19.51
2022-09-19T09:38:34.447Z,19.66
2022-09-19T09:41:39.714Z,19.67
2022-09-19T09:44:14.979Z,19.73
2022-09-19T09:46:49.766Z,19.69
2022-09-19T09:49:19.850Z,19.65
2022-09-19T09:52:01.526Z,19.68
2022-09-19T09:55:34.327Z,19.55
2022-09-19T09:58:27.524Z,19.68
2022-09-19T10:01:34.301Z,19.71
2022-09-19T10:04:48.862Z,19.76
2022-09-19T10:07:15.827Z,19.81
2022-09-19T10:09:54.430Z,19.75
2022-09-19T10:12:46.678Z,19.75
2022-09-19T10:15:21.344Z,19.80
2022-09-19T10:17:56.184Z,19.82
2022-09-19T10:20:35.936Z,19.84
2022-09-19T10:23:02.891Z,19.87
2022-09-19T10:25:31.295Z,19.94
2022-09-19T10:28:18.520Z,19.81
2022-09-19T10:31:06.819Z,19.84
2022-09-19T10:33:46.510Z,19.92
2022-09-19T10:36:26.376Z,19.96
2022-09-19T10:39:00.684Z,19.97
2022-09-19T10:41:31.904Z,19.97
2022-09-19T10:44:25.530Z,19.96
2022-09-19T10:47:03.673Z,19.98
2022-09-19T10:49:50.579Z,20.05
2022-09-19T10:52:50.396Z,20.05
2022-09-19T10:55:23.887Z,20.04
2022-09-19T10:58:07.707Z,20.07
2022-09-19T11:00:57.096Z,20.06
2022-09-19T11:03:40.389Z,20.06
2022-09-19T11:06:16.129Z,20.10
2022-09-19T11:08:52.744Z,20.11
2022-09-19T11:11:49.077Z,20.14
2022-09-19T11:14:23.452Z,20.15
2022-09-19T11:17:43.662Z,20.16
2022-09-19T11:20:33.080Z,20.17
2022-09-19T11:23:29.812Z,20.18
2022-09-19T11:26:53.077Z,20.19
2022-09-19T11:30:12.822Z,20.22
2022-09-19T11:32:58.335Z,20.22
2022-09-19T11:35:32.406Z,20.21
2022-09-19T11:38:02.421Z,20.24
2022-09-19T11:41:01.788Z,20.23
2022-09-19T11:43:45.896Z,20.28
2022-09-19T11:46:50.332Z,20.23
2022-09-19T11:49:52.606Z,20.26
2022-09-19T11:52:32.064Z,20.35
2022-09-19T11:55:13.701Z,20.35
2022-09-19T11:58:06.601Z,20.35
2022-09-19T12:01:04.166Z,20.35
2022-09-19T12:04:07.295Z,20.37
2022-09-19T12:07:12.727Z,20.36
2022-09-19T12:09:53.437Z,20.38
2022-09-19T12:12:24.992Z,20.42
2022-09-19T12:15:03.509Z,20.38
2022-09-19T12:17:43.545Z,20.44
2022-09-19T12:20:27.267Z,20.49
2022-09-19T12:23:31.143Z,20.51
2022-09-19T12:26:00.291Z,20.48
2022-09-19T12:28:41.915Z,20.48
2022-09-19T12:31:16.975Z,20.50
2022-09-19T12:34:03.948Z,20.44
2022-09-19T12:36:53.636Z,20.45
2022-09-19T12:40:04.957Z,20.47
2022-09-19T12:43:12.207Z,20.47
2022-09-19T12:46:10.885Z,20.44
2022-09-19T12:48:57.594Z,20.42
2022-09-19T12:51:39.755Z,20.52
2022-09-19T12:54:15.607Z,20.47
2022-09-19T12:57:06.278Z,20.49
2022-09-19T12:59:36.307Z,20.48
2022-09-19T13:02:29.586Z,20.47
2022-09-19T13:05:35.299Z,20.81
2022-09-19T13:08:10.603Z,20.69
2022-09-19T13:11:00.527Z,20.83
2022-09-19T13:13:49.016Z,20.77
2022-09-19T13:16:20.209Z,20.84
2022-09-19T13:19:15.168Z,20.75
2022-09-19T13:22:04.795Z,20.65
2022-09-19T13:24:47.182Z,20.81
2022-09-19T13:27:15.551Z,20.90
2022-09-19T13:29:44.328Z,20.84
2022-09-19T13:32:35.733Z,20.69
2022-09-19T13:35:16.992Z,20.94
2022-09-19T13:38:01.131Z,20.90
2022-09-19T13:40:47.204Z,20.97
2022-09-19T13:43:37.958Z,20.95
2022-09-19T13:46:17.235Z,20.87
2022-09-19T13:48:54.167Z,20.83
2022-09-19T13:51:41.141Z,20.86
2022-09-19T13:54:25.089Z,20.83
2022-09-19T13:57:03.506Z,21.01
2022-09-19T13:59:46.488Z,20.98
2022-09-19T14:02:14.206Z,20.89
2022-09-19T14:05:09.986Z,20.65
2022-09-19T14:10:55.201Z,20.48
2022-09-19T14:13:22.608Z,20.34
2022-09-19T14:16:38.606Z,20.44
2022-09-19T14:19:49.843Z,20.57
2022-09-19T14:22:36.008Z,20.93
2022-09-19T14:25:27.029Z,20.51
2022-09-19T14:28:37.887Z,20.47
2022-09-19T14:31:48.060Z,20.38
2022-09-19T14:34:48.607Z,20.05
2022-09-19T14:37:47.213Z,20.04
2022-09-19T14:40:52.182Z,19.99
2022-09-19T14:44:03.684Z,20.14
2022-09-19T14:46:57.317Z,19.98
2022-09-19T14:49:49.114Z,20.05
2022-09-19T14:52:24.682Z,19.97
2022-09-19T14:55:02.512Z,19.83
2022-09-19T14:57:30.266Z,19.70
2022-09-19T15:00:24.844Z,19.51
2022-09-19T15:02:52.749Z,19.52
2022-09-19T15:05:33.504Z,19.44
2022-09-19T15:08:25.553Z,19.53
2022-09-19T15:11:04.233Z,19.66
2022-09-19T15:13:34.409Z,19.60
2022-09-19T15:16:09.956Z,19.48
2022-09-19T15:18:43.262Z,19.36
2022-09-19T15:21:28.495Z,19.21
2022-09-19T15:24:01.808Z,19.43
2022-09-19T15:26:35.127Z,19.35
2022-09-19T15:29:07.029Z,19.26
2022-09-19T15:31:34.683Z,19.22
2022-09-19T15:34:12.958Z,19.10
2022-09-19T15:36:43.949Z,19.13
2022-09-19T15:39:14.304Z,19.12
2022-09-19T15:41:42.530Z,18.98
2022-09-19T15:44:26.845Z,18.90
2022-09-19T15:47:08.216Z,18.99
2022-09-19T15:49:40.582Z,18.91
2022-09-19T15:52:30.858Z,18.83
2022-09-19T15:55:01.424Z,18.76
2022-09-19T15:57:50.884Z,18.80
2022-09-19T16:00:24.649Z,18.99
2022-09-19T16:02:59.942Z,18.97
2022-09-19T16:05:37.400Z,18.86
2022-09-19T16:08:47.680Z,18.75
2022-09-19T16:11:34.689Z,18.72
2022-09-19T16:14:27.743Z,18.71
2022-09-19T16:16:57.054Z,18.70
2022-09-19T16:19:49.248Z,18.67
2022-09-19T16:22:23.842Z,18.49
2022-09-19T16:25:03.971Z,18.40
2022-09-19T16:27:32.435Z,18.38
2022-09-19T16:30:02.940Z,18.20
2022-09-19T16:32:31.247Z,18.10
2022-09-19T16:35:01.856Z,18.07
2022-09-19T16:37:42.481Z,18.05
2022-09-19T16:40:30.517Z,18.05
2022-09-19T16:42:59.390Z,18.02
2022-09-19T16:45:41.546Z,17.98
2022-09-19T16:48:09.316Z,17.88
2022-09-19T16:50:42.115Z,17.92
2022-09-19T16:53:15.668Z,17.87
2022-09-19T16:55:43.447Z,17.80
2022-09-19T16:58:16.503Z,17.79
2022-09-19T17:00:47.904Z,17.74
2022-09-19T17:03:16.000Z,17.73
2022-09-19T17:05:43.372Z,17.75
2022-09-19T17:08:10.412Z,17.66
2022-09-19T17:10:38.815Z,17.66
2022-09-19T17:13:06.971Z,17.61
2022-09-19T17:15:42.332Z,17.59
2022-09-19T17:18:11.044Z,17.52
2022-09-19T17:20:40.416Z,17.46
2022-09-19T17:23:09.388Z,17.41
2022-09-19T17:25:47.992Z,17.37
2022-09-19T17:28:17.954Z,17.32
2022-09-19T17:30:49.694Z,17.25
2022-09-19T17:33:17.766Z,17.15
2022-09-19T17:35:45.298Z,17.12
2022-09-19T17:38:12.562Z,17.00
2022-09-19T17:40:45.611Z,17.01
2022-09-19T17:43:20.146Z,16.94
2022-09-19T17:45:50.356Z,16.93
2022-09-19T17:48:18.823Z,16.77
2022-09-19T17:50:45.983Z,16.79
2022-09-19T17:53:13.677Z,16.78
2022-09-19T17:55:40.617Z,16.77
2022-09-19T17:58:10.183Z,16.75
2022-09-19T18:00:38.992Z,16.73
2022-09-19T18:03:18.461Z,16.70
2022-09-19T18:06:01.366Z,16.63
2022-09-19T18:08:31.038Z,16.58
2022-09-19T18:11:03.532Z,16.56
2022-09-19T18:13:37.120Z,16.52
2022-09-19T18:16:12.694Z,16.45
2022-09-19T18:18:41.545Z,16.42
2022-09-19T18:21:09.702Z,16.39
2022-09-19T18:23:39.054Z,16.35
2022-09-19T18:26:07.984Z,16.31
2022-09-19T18:28:36.515Z,16.27
2022-09-19T18:31:09.581Z,16.23
2022-09-19T18:33:37.963Z,16.22
2022-09-19T18:36:16.437Z,16.19
2022-09-19T18:38:44.350Z,16.19
2022-09-19T18:41:12.397Z,16.14
2022-09-19T18:43:42.136Z,16.13
2022-09-19T18:46:13.540Z,16.10
2022-09-19T18:48:42.785Z,16.09
2022-09-19T18:51:17.523Z,16.08
2022-09-19T18:53:49.457Z,16.05
2022-09-19T18:56:17.464Z,16.02
2022-09-19T18:58:45.072Z,16.01
2022-09-19T19:01:16.425Z,16.01
2022-09-19T19:03:54.489Z,15.98
2022-09-19T19:06:22.564Z,15.95
2022-09-19T19:08:52.363Z,15.96
2022-09-19T19:11:30.590Z,15.94
2022-09-19T19:14:02.175Z,15.95
2022-09-19T19:16:31.336Z,15.92
2022-09-19T19:18:59.742Z,15.90
2022-09-19T19:21:37.415Z,15.91
2022-09-19T19:24:18.272Z,15.91
2022-09-19T19:26:45.738Z,15.89
2022-09-19T19:29:13.109Z,15.88
2022-09-19T19:31:41.160Z,15.87
2022-09-19T19:34:09.374Z,15.84
2022-09-19T19:36:37.582Z,15.85
2022-09-19T19:39:09.045Z,15.83
2022-09-19T19:41:38.483Z,15.82
2022-09-19T19:44:07.619Z,15.80
2022-09-19T19:46:37.777Z,15.77
2022-09-19T19:49:08.396Z,15.73
2022-09-19T19:51:42.195Z,15.74
2022-09-19T19:54:13.433Z,15.70
2022-09-19T19:56:41.045Z,15.67
2022-09-19T19:59:08.821Z,15.67
2022-09-19T20:01:37.402Z,15.60
2022-09-19T20:04:08.489Z,15.57
2022-09-19T20:06:48.442Z,15.58
2022-09-19T20:09:16.411Z,15.57
2022-09-19T20:11:46.979Z,15.55
2022-09-19T20:14:18.044Z,15.55
2022-09-19T20:16:47.746Z,15.51
2022-09-19T20:19:20.110Z,15.46
2022-09-19T20:21:50.724Z,15.48
2022-09-19T20:24:24.171Z,15.47
2022-09-19T20:26:53.528Z,15.44
2022-09-19T20:29:23.813Z,15.42
2022-09-19T20:31:53.318Z,15.42
2022-09-19T20:34:21.225Z,15.40
2022-09-19T20:36:48.696Z,15.37
2022-09-19T20:39:15.797Z,15.35
2022-09-19T20:41:46.577Z,15.34
2022-09-19T20:44:14.753Z,15.32
2022-09-19T20:46:42.181Z,15.32
2022-09-19T20:49:09.904Z,15.34
2022-09-19T20:51:41.915Z,15.32
2022-09-19T20:54:19.229Z,15.31
2022-09-19T20:56:47.426Z,15.29
2022-09-19T20:59:16.876Z,15.29
2022-09-19T21:01:49.313Z,15.26
2022-09-19T21:04:17.610Z,15.28
2022-09-19T21:06:45.824Z,15.25
2022-09-19T21:09:13.543Z,15.25
2022-09-19T21:11:40.575Z,15.24
2022-09-19T21:14:07.615Z,15.28
2022-09-19T21:16:34.855Z,15.25
2022-09-19T21:19:02.104Z,15.24
2022-09-19T21:21:31.363Z,15.24
2022-09-19T21:23:58.841Z,15.19
2022-09-19T21:26:29.849Z,15.20
2022-09-19T21:29:02.004Z,15.18
2022-09-19T21:31:32.066Z,15.17
2022-09-19T21:34:02.275Z,15.15
2022-09-19T21:36:32.280Z,15.14
2022-09-19T21:38:59.707Z,15.15
2022-09-19T21:41:31.964Z,15.13
2022-09-19T21:44:01.564Z,15.09
2022-09-19T21:46:33.509Z,15.08
2022-09-19T21:49:00.882Z,15.06
2022-09-19T21:51:31.805Z,15.04
2022-09-19T21:54:01.273Z,15.02
2022-09-19T21:56:31.635Z,15.04
2022-09-19T21:58:59.608Z,15.02
2022-09-19T22:01:28.913Z,15.01
2022-09-19T22:03:57.557Z,15.00
2022-09-19T22:06:27.618Z,14.99
2022-09-19T22:08:57.243Z,14.97
2022-09-19T22:11:32.155Z,14.98
2022-09-19T22:14:00.214Z,14.94
2022-09-19T22:16:32.079Z,14.95
2022-09-19T22:18:59.638Z,14.95
2022-09-19T22:21:28.420Z,14.96
2022-09-19T22:23:57.706Z,14.94
2022-09-19T22:26:28.507Z,14.93
2022-09-19T22:28:56.576Z,14.94
2022-09-19T22:31:25.703Z,14.95
2022-09-19T22:33:54.289Z,14.92
2022-09-19T22:36:30.324Z,14.92
2022-09-19T22:39:00.180Z,14.90
2022-09-19T22:41:27.999Z,14.91
2022-09-19T22:43:56.585Z,14.91
2022-09-19T22:46:26.860Z,14.89
2022-09-19T22:48:54.418Z,14.88
2022-09-19T22:51:25.103Z,14.84
2022-09-19T22:53:53.086Z,14.84
2022-09-19T22:56:24.655Z,14.85
2022-09-19T22:58:52.099Z,14.83
2022-09-19T23:01:27.903Z,14.82
2022-09-19T23:03:58.040Z,14.83
2022-09-19T23:06:31.476Z,14.84
2022-09-19T23:09:14.288Z,14.80
2022-09-19T23:11:42.957Z,14.79
2022-09-19T23:14:21.001Z,14.80
2022-09-19T23:16:48.225Z,14.84
2022-09-19T23:19:26.526Z,14.83
2022-09-19T23:21:56.907Z,14.83
2022-09-19T23:24:29.656Z,14.81
2022-09-19T23:26:59.848Z,14.80
2022-09-19T23:29:27.251Z,14.80
2022-09-19T23:31:54.668Z,14.80
2022-09-19T23:34:22.513Z,14.75
2022-09-19T23:36:53.353Z,14.74
2022-09-19T23:39:21.150Z,14.76
2022-09-19T23:41:48.167Z,14.76
2022-09-19T23:44:15.276Z,14.74
2022-09-19T23:46:42.287Z,14.73
2022-09-19T23:49:09.328Z,14.77
2022-09-19T23:51:36.931Z,14.77
2022-09-19T23:54:05.004Z,14.79
2022-09-19T23:56:32.985Z,14.76
2022-09-19T23:59:01.005Z,14.74
